LESA Airport Information

Runway Information
Runway 03 Length 8202 ft width 197 ft
Elevation 2595 ft Threshold ft Heading 28
Runway 21 Length 8202 ft Width 197 ft
Elevation 2586 ft Threshold ft Heading 208
Runway 08 Length 6594 ft width 400 ft
Elevation 2587 ft Threshold ft Heading 74
Runway 26 Length 6594 ft Width 400 ft
Elevation 2588 ft Threshold ft Heading 254
Airport Frequencies
Type APP Name APP Frequency 124.4 MHZ
Type GND Name GND Frequency 121.85 MHZ
Type TWR Name TWR Frequency 139.3 MHZ
Airport Navaids
Type VOR-DME Name Salamanca Frequency 112200 KHZ
Type NDB Name Salamanca Frequency 399 KHZ
Type NDB Name Salamanca Frequency 423 KHZ
Type TACAN Name Salamanca Frequency 113300 KHZ
Airport Weather Information & NOTAM
ADDS - METARS form results

(1956 UTC 30 September 2022)
Data provider http://aviationweather.gov/metar/data/
 
METAR text: LESA 301930Z AUTO 17003KT 7000 NCD 11/06 Q1020
Conditions at: LESA (SALAMANCA (CIV/M, ES) observed 1930 UTC 30 September 2022
Temperature: 11.0°C (52°F)
Dewpoint: 6.0°C (43°F) [RH = 71%]
Pressure (altimeter): 30.12 inches Hg (1020.0 mb)
Winds: from the S (170 degrees) at 3 MPH (3 knots; 1.5 m/s)
Visibility: 4 miles ( 7 km)
Ceiling: at least 12,000 feet AGL
Clouds: sky clear below 12,000 feet AGL
Weather: no significant weather observed at this time

METAR text: LESA 301900Z AUTO 09003KT 8000 NCD 11/06 Q1020
Conditions at: LESA (SALAMANCA (CIV/M, ES) observed 1900 UTC 30 September 2022
Temperature: 11.0°C (52°F)
Dewpoint: 6.0°C (43°F) [RH = 71%]
Pressure (altimeter): 30.12 inches Hg (1020.0 mb)
Winds: from the E (90 degrees) at 3 MPH (3 knots; 1.5 m/s)
Visibility: 5 miles ( 8 km)
Ceiling: at least 12,000 feet AGL
Clouds: sky clear below 12,000 feet AGL
Weather: no significant weather observed at this time

Forecast for: LESA (SALAMANCA (CIV/M, ES)
Text: TAF LESA 301400Z 3015/0115 VRB04KT CAVOK TX24/0115Z TN03/0106Z
Forecast period: 1500 UTC 30 September 2022 to 1500 UTC 01 October 2022
Forecast type: FROM: standard forecast or significant change
Winds: variable direction winds at 5 MPH (4 knots; 2.1 m/s)
Visibility: 6 or more miles (10+ km)
Ceiling: unknown
Clouds: missing
Weather: no significant weather forecast for this period